sensor_id;sensor_type;location;lat;lon;timestamp;pressure;altitude;pressure_sealevel;temperature;humidity
63321;BME280;49449;48.800;9.534;2024-03-02T00:00:59;97445.38;;;5.71;45.05
63321;BME280;49449;48.800;9.534;2024-03-02T00:03:27;97450.97;;;5.75;45.02
63321;BME280;49449;48.800;9.534;2024-03-02T00:05:55;97451.53;;;5.77;45.08
63321;BME280;49449;48.800;9.534;2024-03-02T00:08:24;97448.63;;;5.85;44.68
63321;BME280;49449;48.800;9.534;2024-03-02T00:10:57;97447.78;;;5.84;44.68
63321;BME280;49449;48.800;9.534;2024-03-02T00:13:25;97452.69;;;5.81;44.66
63321;BME280;49449;48.800;9.534;2024-03-02T00:15:55;97451.41;;;5.71;44.58
63321;BME280;49449;48.800;9.534;2024-03-02T00:18:26;97459.03;;;5.43;45.20
63321;BME280;49449;48.800;9.534;2024-03-02T00:20:55;97461.06;;;5.41;45.31
63321;BME280;49449;48.800;9.534;2024-03-02T00:23:24;97474.38;;;5.39;45.34
63321;BME280;49449;48.800;9.534;2024-03-02T00:25:55;97466.47;;;5.27;45.99
63321;BME280;49449;48.800;9.534;2024-03-02T00:28:24;97463.09;;;5.39;45.38
63321;BME280;49449;48.800;9.534;2024-03-02T00:30:58;97465.34;;;5.35;45.72
63321;BME280;49449;48.800;9.534;2024-03-02T00:33:27;97464.84;;;5.26;45.77
63321;BME280;49449;48.800;9.534;2024-03-02T00:35:57;97463.47;;;5.24;45.90
63321;BME280;49449;48.800;9.534;2024-03-02T00:38:26;97466.38;;;5.34;45.57
63321;BME280;49449;48.800;9.534;2024-03-02T00:40:55;97462.38;;;5.50;45.19
63321;BME280;49449;48.800;9.534;2024-03-02T00:43:42;97465.56;;;5.52;45.04
63321;BME280;49449;48.800;9.534;2024-03-02T00:46:16;97463.91;;;5.39;45.14
63321;BME280;49449;48.800;9.534;2024-03-02T00:48:52;97464.56;;;5.35;45.63
63321;BME280;49449;48.800;9.534;2024-03-02T00:51:21;97467.31;;;5.40;45.69
63321;BME280;49449;48.800;9.534;2024-03-02T00:53:50;97462.22;;;5.45;45.61
63321;BME280;49449;48.800;9.534;2024-03-02T00:56:19;97469.19;;;5.51;45.42
63321;BME280;49449;48.800;9.534;2024-03-02T00:58:47;97461.25;;;5.58;45.26
63321;BME280;49449;48.800;9.534;2024-03-02T01:01:16;97466.06;;;5.61;45.56
63321;BME280;49449;48.800;9.534;2024-03-02T01:03:44;97463.00;;;5.64;45.36
63321;BME280;49449;48.800;9.534;2024-03-02T01:06:12;97462.53;;;5.67;45.18
63321;BME280;49449;48.800;9.534;2024-03-02T01:08:39;97464.16;;;5.68;45.32
63321;BME280;49449;48.800;9.534;2024-03-02T01:11:07;97470.19;;;5.68;45.36
63321;BME280;49449;48.800;9.534;2024-03-02T01:13:35;97450.84;;;5.69;45.06
63321;BME280;49449;48.800;9.534;2024-03-02T01:16:03;97456.06;;;5.69;45.46
63321;BME280;49449;48.800;9.534;2024-03-02T01:18:33;97458.47;;;5.71;45.15
63321;BME280;49449;48.800;9.534;2024-03-02T01:21:01;97451.75;;;5.75;45.21
63321;BME280;49449;48.800;9.534;2024-03-02T01:23:28;97457.78;;;5.76;45.37
63321;BME280;49449;48.800;9.534;2024-03-02T01:25:56;97451.53;;;5.77;45.21
63321;BME280;49449;48.800;9.534;2024-03-02T01:28:24;97459.41;;;5.77;44.91
63321;BME280;49449;48.800;9.534;2024-03-02T01:30:52;97451.75;;;5.75;45.00
63321;BME280;49449;48.800;9.534;2024-03-02T01:33:20;97448.47;;;5.80;44.87
63321;BME280;49449;48.800;9.534;2024-03-02T01:35:49;97441.41;;;5.80;44.98
63321;BME280;49449;48.800;9.534;2024-03-02T01:38:17;97441.28;;;5.75;45.45
63321;BME280;49449;48.800;9.534;2024-03-02T01:40:45;97441.06;;;5.77;44.94
63321;BME280;49449;48.800;9.534;2024-03-02T01:43:13;97442.41;;;5.79;44.64
63321;BME280;49449;48.800;9.534;2024-03-02T01:45:41;97449.00;;;5.70;45.16
63321;BME280;49449;48.800;9.534;2024-03-02T01:48:08;97440.91;;;5.71;44.88
63321;BME280;49449;48.800;9.534;2024-03-02T01:50:36;97446.50;;;5.75;45.11
63321;BME280;49449;48.800;9.534;2024-03-02T01:53:07;97445.44;;;5.64;44.84
63321;BME280;49449;48.800;9.534;2024-03-02T01:55:36;97443.84;;;5.63;44.90
63321;BME280;49449;48.800;9.534;2024-03-02T01:58:04;97456.22;;;5.56;45.22
63321;BME280;49449;48.800;9.534;2024-03-02T02:00:33;97450.28;;;5.49;44.99
63321;BME280;49449;48.800;9.534;2024-03-02T02:03:01;97448.34;;;5.44;45.30
63321;BME280;49449;48.800;9.534;2024-03-02T02:05:28;97447.44;;;5.50;45.24
63321;BME280;49449;48.800;9.534;2024-03-02T02:07:58;97442.91;;;5.58;45.47
63321;BME280;49449;48.800;9.534;2024-03-02T02:10:27;97434.19;;;5.64;45.08
63321;BME280;49449;48.800;9.534;2024-03-02T02:12:55;97428.72;;;5.65;45.02
63321;BME280;49449;48.800;9.534;2024-03-02T02:15:24;97432.69;;;5.68;44.87
63321;BME280;49449;48.800;9.534;2024-03-02T02:17:53;97430.44;;;5.71;45.15
63321;BME280;49449;48.800;9.534;2024-03-02T02:20:21;97434.88;;;5.71;44.85
63321;BME280;49449;48.800;9.534;2024-03-02T02:22:57;97435.91;;;5.70;44.83
63321;BME280;49449;48.800;9.534;2024-03-02T02:25:26;97430.66;;;5.70;44.97
63321;BME280;49449;48.800;9.534;2024-03-02T02:27:54;97425.50;;;5.63;44.81
63321;BME280;49449;48.800;9.534;2024-03-02T02:30:23;97421.06;;;5.64;45.14
63321;BME280;49449;48.800;9.534;2024-03-02T02:32:51;97426.09;;;5.65;44.76
63321;BME280;49449;48.800;9.534;2024-03-02T02:35:19;97420.38;;;5.68;44.52
63321;BME280;49449;48.800;9.534;2024-03-02T02:37:48;97422.16;;;5.56;44.48
63321;BME280;49449;48.800;9.534;2024-03-02T02:40:18;97434.13;;;5.52;44.97
63321;BME280;49449;48.800;9.534;2024-03-02T02:42:46;97433.75;;;5.48;44.75
63321;BME280;49449;48.800;9.534;2024-03-02T02:45:15;97420.66;;;5.48;44.34
63321;BME280;49449;48.800;9.534;2024-03-02T02:47:43;97426.53;;;5.32;44.63
63321;BME280;49449;48.800;9.534;2024-03-02T02:50:12;97425.13;;;5.29;45.11
63321;BME280;49449;48.800;9.534;2024-03-02T02:52:41;97421.66;;;5.36;44.78
63321;BME280;49449;48.800;9.534;2024-03-02T02:55:10;97416.19;;;5.37;44.55
63321;BME280;49449;48.800;9.534;2024-03-02T02:57:41;97421.72;;;5.29;44.63
63321;BME280;49449;48.800;9.534;2024-03-02T03:00:11;97427.31;;;5.32;44.90
63321;BME280;49449;48.800;9.534;2024-03-02T03:02:42;97420.25;;;5.33;44.62
63321;BME280;49449;48.800;9.534;2024-03-02T03:05:11;97419.81;;;5.36;44.64
63321;BME280;49449;48.800;9.534;2024-03-02T03:07:41;97421.50;;;5.30;44.71
63321;BME280;49449;48.800;9.534;2024-03-02T03:10:10;97412.38;;;5.33;44.39
63321;BME280;49449;48.800;9.534;2024-03-02T03:12:39;97420.25;;;5.33;44.06
63321;BME280;49449;48.800;9.534;2024-03-02T03:15:09;97413.66;;;5.30;44.28
63321;BME280;49449;48.800;9.534;2024-03-02T03:17:38;97413.44;;;5.32;44.50
63321;BME280;49449;48.800;9.534;2024-03-02T03:20:07;97414.22;;;5.32;44.05
63321;BME280;49449;48.800;9.534;2024-03-02T03:22:37;97412.81;;;5.30;44.27
63321;BME280;49449;48.800;9.534;2024-03-02T03:25:06;97408.63;;;5.29;44.24
63321;BME280;49449;48.800;9.534;2024-03-02T03:27:35;97410.00;;;5.31;44.50
63321;BME280;49449;48.800;9.534;2024-03-02T03:30:05;97415.44;;;5.30;44.59
63321;BME280;49449;48.800;9.534;2024-03-02T03:32:33;97413.84;;;5.29;44.83
63321;BME280;49449;48.800;9.534;2024-03-02T03:35:01;97418.88;;;5.30;44.70
63321;BME280;49449;48.800;9.534;2024-03-02T03:37:29;97419.09;;;5.29;44.33
63321;BME280;49449;48.800;9.534;2024-03-02T03:39:59;97422.06;;;5.32;44.48
63321;BME280;49449;48.800;9.534;2024-03-02T03:42:27;97426.25;;;5.22;44.32
63321;BME280;49449;48.800;9.534;2024-03-02T03:44:55;97428.50;;;5.18;44.46
63321;BME280;49449;48.800;9.534;2024-03-02T03:47:24;97424.84;;;5.19;44.18
63321;BME280;49449;48.800;9.534;2024-03-02T03:49:52;97425.44;;;5.21;44.15
63321;BME280;49449;48.800;9.534;2024-03-02T03:52:20;97428.06;;;5.21;44.37
63321;BME280;49449;48.800;9.534;2024-03-02T03:54:48;97423.63;;;5.22;44.50
63321;BME280;49449;48.800;9.534;2024-03-02T03:57:16;97423.41;;;5.23;44.04
63321;BME280;49449;48.800;9.534;2024-03-02T03:59:44;97423.97;;;5.25;44.24
63321;BME280;49449;48.800;9.534;2024-03-02T04:02:13;97419.75;;;5.24;44.05
63321;BME280;49449;48.800;9.534;2024-03-02T04:04:42;97422.94;;;5.26;44.20
63321;BME280;49449;48.800;9.534;2024-03-02T04:07:10;97422.38;;;5.24;43.84
63321;BME280;49449;48.800;9.534;2024-03-02T04:09:38;97420.22;;;5.21;43.91
63321;BME280;49449;48.800;9.534;2024-03-02T04:12:06;97416.13;;;5.07;43.98
63321;BME280;49449;48.800;9.534;2024-03-02T04:14:33;97421.34;;;5.07;44.25
63321;BME280;49449;48.800;9.534;2024-03-02T04:17:01;97425.00;;;5.06;44.36
63321;BME280;49449;48.800;9.534;2024-03-02T04:19:29;97424.13;;;5.12;44.52
63321;BME280;49449;48.800;9.534;2024-03-02T04:21:58;97424.69;;;5.14;44.50
63321;BME280;49449;48.800;9.534;2024-03-02T04:24:26;97423.69;;;5.15;44.45
63321;BME280;49449;48.800;9.534;2024-03-02T04:26:54;97428.00;;;5.09;44.42
63321;BME280;49449;48.800;9.534;2024-03-02T04:29:22;97423.97;;;5.07;44.55
63321;BME280;49449;48.800;9.534;2024-03-02T04:31:50;97424.94;;;5.12;44.71
63321;BME280;49449;48.800;9.534;2024-03-02T04:34:17;97421.28;;;5.13;44.82
63321;BME280;49449;48.800;9.534;2024-03-02T04:36:45;97412.94;;;5.05;44.80
63321;BME280;49449;48.800;9.534;2024-03-02T04:39:14;97416.47;;;5.10;45.09
63321;BME280;49449;48.800;9.534;2024-03-02T04:41:42;97421.28;;;5.13;44.89
63321;BME280;49449;48.800;9.534;2024-03-02T04:44:10;97422.31;;;5.12;45.04
63321;BME280;49449;48.800;9.534;2024-03-02T04:46:37;97430.97;;;5.13;45.00
63321;BME280;49449;48.800;9.534;2024-03-02T04:49:05;97429.13;;;5.13;44.76
63321;BME280;49449;48.800;9.534;2024-03-02T04:51:33;97430.97;;;5.13;44.49
63321;BME280;49449;48.800;9.534;2024-03-02T04:54:01;97433.38;;;5.14;44.71
63321;BME280;49449;48.800;9.534;2024-03-02T04:56:30;97439.03;;;5.11;44.47
63321;BME280;49449;48.800;9.534;2024-03-02T04:59:10;97437.22;;;5.12;44.62
63321;BME280;49449;48.800;9.534;2024-03-02T05:01:38;97442.31;;;5.07;44.39
63321;BME280;49449;48.800;9.534;2024-03-02T05:04:06;97441.94;;;5.03;44.17
63321;BME280;49449;48.800;9.534;2024-03-02T05:06:34;97437.72;;;5.02;44.34
63321;BME280;49449;48.800;9.534;2024-03-02T05:09:02;97438.44;;;4.91;43.93
63321;BME280;49449;48.800;9.534;2024-03-02T05:11:31;97435.22;;;4.89;43.99
63321;BME280;49449;48.800;9.534;2024-03-02T05:14:17;97435.66;;;4.86;44.40
63321;BME280;49449;48.800;9.534;2024-03-02T05:16:44;97434.84;;;4.85;44.42
63321;BME280;49449;48.800;9.534;2024-03-02T05:19:12;97434.84;;;4.85;44.13
63321;BME280;49449;48.800;9.534;2024-03-02T05:21:40;97444.16;;;4.81;44.46
63321;BME280;49449;48.800;9.534;2024-03-02T05:24:08;97448.72;;;4.86;44.84
63321;BME280;49449;48.800;9.534;2024-03-02T05:26:37;97436.47;;;4.86;44.46
63321;BME280;49449;48.800;9.534;2024-03-02T05:29:04;97436.81;;;4.90;44.45
63321;BME280;49449;48.800;9.534;2024-03-02T05:31:33;97435.81;;;4.91;44.23
63321;BME280;49449;48.800;9.534;2024-03-02T05:34:00;97429.59;;;4.92;43.98
63321;BME280;49449;48.800;9.534;2024-03-02T05:36:29;97427.78;;;4.67;43.99
63321;BME280;49449;48.800;9.534;2024-03-02T05:38:57;97429.47;;;4.62;44.12
63321;BME280;49449;48.800;9.534;2024-03-02T05:41:24;97428.72;;;4.54;44.18
63321;BME280;49449;48.800;9.534;2024-03-02T05:43:54;97430.50;;;4.54;44.56
63321;BME280;49449;48.800;9.534;2024-03-02T05:46:21;97426.25;;;4.60;44.65
63321;BME280;49449;48.800;9.534;2024-03-02T05:48:49;97435.28;;;4.64;43.93
63321;BME280;49449;48.800;9.534;2024-03-02T05:51:17;97438.34;;;4.54;44.09
63321;BME280;49449;48.800;9.534;2024-03-02T05:53:45;97432.13;;;4.55;44.12
63321;BME280;49449;48.800;9.534;2024-03-02T05:56:13;97425.94;;;4.49;43.86
63321;BME280;49449;48.800;9.534;2024-03-02T05:58:41;97420.72;;;4.49;44.13
63321;BME280;49449;48.800;9.534;2024-03-02T06:01:26;97429.09;;;4.33;44.10
63321;BME280;49449;48.800;9.534;2024-03-02T06:03:55;97426.34;;;4.28;44.42
63321;BME280;49449;48.800;9.534;2024-03-02T06:06:23;97436.50;;;4.36;45.22
63321;BME280;49449;48.800;9.534;2024-03-02T06:08:51;97438.66;;;4.46;45.00
63321;BME280;49449;48.800;9.534;2024-03-02T06:11:19;97444.19;;;4.56;44.70
63321;BME280;49449;48.800;9.534;2024-03-02T06:13:47;97446.72;;;4.63;44.54
63321;BME280;49449;48.800;9.534;2024-03-02T06:16:15;97446.88;;;4.49;44.84
63321;BME280;49449;48.800;9.534;2024-03-02T06:18:44;97454.50;;;4.51;44.53
63321;BME280;49449;48.800;9.534;2024-03-02T06:21:12;97454.72;;;4.49;44.69
63321;BME280;49449;48.800;9.534;2024-03-02T06:23:39;97464.38;;;4.49;44.54
63321;BME280;49449;48.800;9.534;2024-03-02T06:26:07;97457.59;;;4.41;44.50
63321;BME280;49449;48.800;9.534;2024-03-02T06:28:35;97461.50;;;4.32;44.41
63321;BME280;49449;48.800;9.534;2024-03-02T06:31:03;97458.88;;;4.32;44.56
63321;BME280;49449;48.800;9.534;2024-03-02T06:33:31;97461.06;;;4.35;44.66
63321;BME280;49449;48.800;9.534;2024-03-02T06:36:00;97465.44;;;4.41;44.58
63321;BME280;49449;48.800;9.534;2024-03-02T06:38:28;97467.84;;;4.43;44.51
63321;BME280;49449;48.800;9.534;2024-03-02T06:40:58;97466.59;;;4.45;44.70
63321;BME280;49449;48.800;9.534;2024-03-02T06:43:26;97465.38;;;4.48;44.71
63321;BME280;49449;48.800;9.534;2024-03-02T06:45:54;97467.38;;;4.52;44.76
63321;BME280;49449;48.800;9.534;2024-03-02T06:48:22;97465.75;;;4.51;44.80
63321;BME280;49449;48.800;9.534;2024-03-02T06:50:51;97466.56;;;4.52;44.66
63321;BME280;49449;48.800;9.534;2024-03-02T06:53:20;97463.53;;;4.55;44.63
63321;BME280;49449;48.800;9.534;2024-03-02T06:55:49;97457.50;;;4.54;44.72
63321;BME280;49449;48.800;9.534;2024-03-02T06:58:16;97455.28;;;4.51;44.82
63321;BME280;49449;48.800;9.534;2024-03-02T07:00:44;97463.31;;;4.56;45.13
63321;BME280;49449;48.800;9.534;2024-03-02T07:03:12;97464.03;;;4.64;45.05
63321;BME280;49449;48.800;9.534;2024-03-02T07:05:40;97465.00;;;4.69;44.75
63321;BME280;49449;48.800;9.534;2024-03-02T07:08:08;97462.75;;;4.73;44.78
63321;BME280;49449;48.800;9.534;2024-03-02T07:10:37;97462.47;;;4.81;44.94
63321;BME280;49449;48.800;9.534;2024-03-02T07:13:05;97467.28;;;4.84;44.99
63321;BME280;49449;48.800;9.534;2024-03-02T07:15:32;97464.22;;;4.87;45.04
63321;BME280;49449;48.800;9.534;2024-03-02T07:18:20;97472.84;;;4.94;44.97
63321;BME280;49449;48.800;9.534;2024-03-02T07:20:48;97470.38;;;5.00;44.85
63321;BME280;49449;48.800;9.534;2024-03-02T07:23:16;97477.78;;;5.03;44.94
63321;BME280;49449;48.800;9.534;2024-03-02T07:25:45;97475.38;;;5.01;45.23
63321;BME280;49449;48.800;9.534;2024-03-02T07:28:16;97479.56;;;5.09;45.13
63321;BME280;49449;48.800;9.534;2024-03-02T07:30:43;97477.44;;;5.18;44.54
63321;BME280;49449;48.800;9.534;2024-03-02T07:33:11;97477.16;;;5.26;44.41
63321;BME280;49449;48.800;9.534;2024-03-02T07:35:39;97485.28;;;5.36;44.15
63321;BME280;49449;48.800;9.534;2024-03-02T07:38:07;97475.81;;;5.35;43.83
63321;BME280;49449;48.800;9.534;2024-03-02T07:40:35;97477.22;;;5.38;43.63
63321;BME280;49449;48.800;9.534;2024-03-02T07:43:04;97470.00;;;5.33;44.04
63321;BME280;49449;48.800;9.534;2024-03-02T07:45:32;97472.13;;;5.43;44.18
63321;BME280;49449;48.800;9.534;2024-03-02T07:48:00;97477.19;;;5.56;43.83
63321;BME280;49449;48.800;9.534;2024-03-02T07:50:30;97486.25;;;5.72;43.92
63321;BME280;49449;48.800;9.534;2024-03-02T07:52:57;97474.81;;;5.85;43.60
63321;BME280;49449;48.800;9.534;2024-03-02T07:55:25;97472.44;;;5.95;43.52
63321;BME280;49449;48.800;9.534;2024-03-02T07:57:53;97480.34;;;6.07;43.38
63321;BME280;49449;48.800;9.534;2024-03-02T08:00:23;97482.22;;;6.18;43.43
63321;BME280;49449;48.800;9.534;2024-03-02T08:02:52;97479.19;;;6.33;43.21
63321;BME280;49449;48.800;9.534;2024-03-02T08:05:20;97472.72;;;6.48;43.50
63321;BME280;49449;48.800;9.534;2024-03-02T08:07:48;97474.44;;;6.65;42.91
63321;BME280;49449;48.800;9.534;2024-03-02T08:10:19;97475.00;;;6.79;42.90
63321;BME280;49449;48.800;9.534;2024-03-02T08:12:47;97475.81;;;6.92;42.78
63321;BME280;49449;48.800;9.534;2024-03-02T08:15:14;97473.97;;;7.04;42.59
63321;BME280;49449;48.800;9.534;2024-03-02T08:17:44;97484.25;;;7.17;42.18
63321;BME280;49449;48.800;9.534;2024-03-02T08:20:15;97486.38;;;7.32;42.49
63321;BME280;49449;48.800;9.534;2024-03-02T08:22:43;97483.28;;;7.47;42.44
63321;BME280;49449;48.800;9.534;2024-03-02T08:25:11;97473.56;;;7.59;42.64
63321;BME280;49449;48.800;9.534;2024-03-02T08:27:39;97476.13;;;7.71;43.06
63321;BME280;49449;48.800;9.534;2024-03-02T08:30:08;97467.97;;;7.85;42.50
63321;BME280;49449;48.800;9.534;2024-03-02T08:32:37;97468.72;;;7.97;42.36
63321;BME280;49449;48.800;9.534;2024-03-02T08:35:07;97471.28;;;8.09;42.58
63321;BME280;49449;48.800;9.534;2024-03-02T08:37:37;97472.88;;;8.10;42.50
63321;BME280;49449;48.800;9.534;2024-03-02T08:40:06;97468.88;;;8.24;42.33
63321;BME280;49449;48.800;9.534;2024-03-02T08:42:34;97470.16;;;8.39;42.40
63321;BME280;49449;48.800;9.534;2024-03-02T08:45:02;97467.00;;;8.53;42.00
63321;BME280;49449;48.800;9.534;2024-03-02T08:47:30;97462.28;;;8.72;42.23
63321;BME280;49449;48.800;9.534;2024-03-02T08:49:58;97465.25;;;8.76;42.38
63321;BME280;49449;48.800;9.534;2024-03-02T08:52:28;97460.38;;;8.85;42.01
63321;BME280;49449;48.800;9.534;2024-03-02T08:54:56;97455.22;;;8.95;42.29
63321;BME280;49449;48.800;9.534;2024-03-02T08:57:24;97461.69;;;9.04;42.20
63321;BME280;49449;48.800;9.534;2024-03-02T08:59:51;97461.50;;;9.11;42.02
63321;BME280;49449;48.800;9.534;2024-03-02T09:02:19;97451.03;;;9.16;41.84
63321;BME280;49449;48.800;9.534;2024-03-02T09:04:47;97454.72;;;9.15;41.54
63321;BME280;49449;48.800;9.534;2024-03-02T09:07:16;97441.00;;;9.13;41.85
63321;BME280;49449;48.800;9.534;2024-03-02T09:09:45;97437.00;;;9.10;41.88
63321;BME280;49449;48.800;9.534;2024-03-02T09:12:13;97433.56;;;9.10;42.07
63321;BME280;49449;48.800;9.534;2024-03-02T09:14:41;97438.03;;;9.09;42.27
63321;BME280;49449;48.800;9.534;2024-03-02T09:17:09;97437.84;;;9.16;42.60
63321;BME280;49449;48.800;9.534;2024-03-02T09:19:41;97430.00;;;9.21;42.20
63321;BME280;49449;48.800;9.534;2024-03-02T09:22:09;97436.13;;;9.27;42.36
63321;BME280;49449;48.800;9.534;2024-03-02T09:24:36;97435.16;;;9.33;42.58
63321;BME280;49449;48.800;9.534;2024-03-02T09:27:06;97431.56;;;9.44;42.66
63321;BME280;49449;48.800;9.534;2024-03-02T09:29:33;97434.34;;;9.55;42.77
63321;BME280;49449;48.800;9.534;2024-03-02T09:32:01;97424.19;;;9.68;42.10
63321;BME280;49449;48.800;9.534;2024-03-02T09:34:29;97422.59;;;9.90;41.77
63321;BME280;49449;48.800;9.534;2024-03-02T09:36:57;97421.47;;;10.13;41.59
63321;BME280;49449;48.800;9.534;2024-03-02T09:39:25;97419.81;;;10.39;41.26
63321;BME280;49449;48.800;9.534;2024-03-02T09:41:53;97409.69;;;10.68;40.74
63321;BME280;49449;48.800;9.534;2024-03-02T09:44:22;97413.81;;;10.86;40.41
63321;BME280;49449;48.800;9.534;2024-03-02T09:46:51;97413.13;;;11.11;39.55
63321;BME280;49449;48.800;9.534;2024-03-02T09:49:19;97412.63;;;11.19;39.27
63321;BME280;49449;48.800;9.534;2024-03-02T09:51:48;97403.72;;;11.41;38.84
63321;BME280;49449;48.800;9.534;2024-03-02T09:54:16;97404.28;;;11.64;38.64
63321;BME280;49449;48.800;9.534;2024-03-02T09:56:50;97402.22;;;11.86;37.78
63321;BME280;49449;48.800;9.534;2024-03-02T09:59:18;97413.09;;;12.10;37.21
63321;BME280;49449;48.800;9.534;2024-03-02T10:01:58;97410.19;;;12.32;36.33
63321;BME280;49449;48.800;9.534;2024-03-02T10:04:27;97406.19;;;12.56;37.36
63321;BME280;49449;48.800;9.534;2024-03-02T10:07:12;97409.06;;;12.69;38.45
63321;BME280;49449;48.800;9.534;2024-03-02T10:09:40;97409.84;;;12.70;34.91
63321;BME280;49449;48.800;9.534;2024-03-02T10:12:09;97405.88;;;12.73;36.06
63321;BME280;49449;48.800;9.534;2024-03-02T10:14:38;97403.22;;;12.67;33.76
63321;BME280;49449;48.800;9.534;2024-03-02T10:17:08;97405.09;;;12.57;35.01
63321;BME280;49449;48.800;9.534;2024-03-02T10:19:37;97403.47;;;12.81;37.19
63321;BME280;49449;48.800;9.534;2024-03-02T10:22:06;97401.50;;;13.18;37.24
63321;BME280;49449;48.800;9.534;2024-03-02T10:24:38;97396.16;;;13.28;32.18
63321;BME280;49449;48.800;9.534;2024-03-02T10:27:08;97392.81;;;13.07;30.44
63321;BME280;49449;48.800;9.534;2024-03-02T10:29:39;97391.81;;;12.72;31.55
63321;BME280;49449;48.800;9.534;2024-03-02T10:32:12;97397.09;;;12.93;31.30
63321;BME280;49449;48.800;9.534;2024-03-02T10:34:40;97390.25;;;12.76;30.91
63321;BME280;49449;48.800;9.534;2024-03-02T10:37:10;97391.47;;;13.04;30.65
63321;BME280;49449;48.800;9.534;2024-03-02T10:39:39;97385.38;;;13.09;30.33
63321;BME280;49449;48.800;9.534;2024-03-02T10:42:08;97386.81;;;13.36;30.72
63321;BME280;49449;48.800;9.534;2024-03-02T10:44:36;97379.06;;;13.50;29.63
63321;BME280;49449;48.800;9.534;2024-03-02T10:47:05;97384.97;;;13.36;29.77
63321;BME280;49449;48.800;9.534;2024-03-02T10:49:34;97373.97;;;13.14;29.69
63321;BME280;49449;48.800;9.534;2024-03-02T10:52:02;97375.13;;;13.42;30.55
63321;BME280;49449;48.800;9.534;2024-03-02T10:54:30;97359.34;;;13.66;30.93
63321;BME280;49449;48.800;9.534;2024-03-02T10:57:03;97357.56;;;13.91;31.44
63321;BME280;49449;48.800;9.534;2024-03-02T10:59:33;97352.78;;;14.22;30.16
63321;BME280;49449;48.800;9.534;2024-03-02T11:02:02;97344.84;;;14.51;30.80
63321;BME280;49449;48.800;9.534;2024-03-02T11:04:31;97346.25;;;14.68;29.50
63321;BME280;49449;48.800;9.534;2024-03-02T11:07:03;97335.09;;;14.66;29.69
63321;BME280;49449;48.800;9.534;2024-03-02T11:09:34;97339.72;;;14.79;28.96
63321;BME280;49449;48.800;9.534;2024-03-02T11:12:03;97336.66;;;14.91;30.43
63321;BME280;49449;48.800;9.534;2024-03-02T11:14:36;97330.34;;;15.06;29.84
63321;BME280;49449;48.800;9.534;2024-03-02T11:17:05;97330.44;;;15.20;29.47
63321;BME280;49449;48.800;9.534;2024-03-02T11:19:34;97332.66;;;15.12;29.13
63321;BME280;49449;48.800;9.534;2024-03-02T11:22:04;97327.50;;;15.21;29.40
63321;BME280;49449;48.800;9.534;2024-03-02T11:24:33;97322.22;;;15.40;29.24
63321;BME280;49449;48.800;9.534;2024-03-02T11:27:03;97315.94;;;15.50;28.57
63321;BME280;49449;48.800;9.534;2024-03-02T11:29:44;97309.03;;;15.49;27.61
63321;BME280;49449;48.800;9.534;2024-03-02T11:32:16;97313.44;;;15.40;28.21
63321;BME280;49449;48.800;9.534;2024-03-02T11:34:49;97298.59;;;15.52;28.11
63321;BME280;49449;48.800;9.534;2024-03-02T11:37:19;97290.47;;;15.44;27.50
63321;BME280;49449;48.800;9.534;2024-03-02T11:39:50;97293.25;;;15.14;27.68
63321;BME280;49449;48.800;9.534;2024-03-02T11:42:19;97296.31;;;15.27;27.75
63321;BME280;49449;48.800;9.534;2024-03-02T11:44:47;97285.66;;;15.27;27.99
63321;BME280;49449;48.800;9.534;2024-03-02T11:47:16;97283.84;;;15.22;28.06
63321;BME280;49449;48.800;9.534;2024-03-02T11:49:45;97286.22;;;15.43;28.48
63321;BME280;49449;48.800;9.534;2024-03-02T11:52:14;97274.50;;;15.44;28.01
63321;BME280;49449;48.800;9.534;2024-03-02T11:54:46;97275.97;;;15.36;28.78
63321;BME280;49449;48.800;9.534;2024-03-02T11:57:15;97274.00;;;15.23;27.31
63321;BME280;49449;48.800;9.534;2024-03-02T11:59:42;97271.06;;;15.43;28.68
63321;BME280;49449;48.800;9.534;2024-03-02T12:02:15;97269.09;;;15.68;27.91
63321;BME280;49449;48.800;9.534;2024-03-02T12:04:43;97257.97;;;15.47;26.75
63321;BME280;49449;48.800;9.534;2024-03-02T12:07:12;97242.06;;;15.23;26.88
63321;BME280;49449;48.800;9.534;2024-03-02T12:09:40;97245.75;;;14.89;27.22
63321;BME280;49449;48.800;9.534;2024-03-02T12:12:10;97232.91;;;14.96;27.10
63321;BME280;49449;48.800;9.534;2024-03-02T12:14:38;97235.97;;;14.84;27.19
63321;BME280;49449;48.800;9.534;2024-03-02T12:17:06;97226.41;;;15.02;28.17
63321;BME280;49449;48.800;9.534;2024-03-02T12:19:34;97232.47;;;15.08;26.83
63321;BME280;49449;48.800;9.534;2024-03-02T12:22:02;97232.38;;;15.13;26.33
63321;BME280;49449;48.800;9.534;2024-03-02T12:24:30;97231.22;;;15.19;26.22
63321;BME280;49449;48.800;9.534;2024-03-02T12:26:58;97230.03;;;15.11;26.41
63321;BME280;49449;48.800;9.534;2024-03-02T12:29:27;97217.56;;;15.07;25.53
63321;BME280;49449;48.800;9.534;2024-03-02T12:31:56;97212.31;;;15.02;27.11
63321;BME280;49449;48.800;9.534;2024-03-02T12:34:24;97221.19;;;14.78;27.59
63321;BME280;49449;48.800;9.534;2024-03-02T12:36:53;97225.28;;;14.89;25.92
63321;BME280;49449;48.800;9.534;2024-03-02T12:39:21;97207.00;;;15.02;25.38
63321;BME280;49449;48.800;9.534;2024-03-02T12:41:49;97206.38;;;14.91;25.94
63321;BME280;49449;48.800;9.534;2024-03-02T12:44:17;97201.13;;;14.86;26.47
63321;BME280;49449;48.800;9.534;2024-03-02T12:46:47;97202.78;;;14.63;25.67
63321;BME280;49449;48.800;9.534;2024-03-02T12:49:16;97201.41;;;14.46;26.85
63321;BME280;49449;48.800;9.534;2024-03-02T12:51:44;97201.28;;;14.32;26.28
63321;BME280;49449;48.800;9.534;2024-03-02T12:54:14;97188.16;;;14.41;26.51
63321;BME280;49449;48.800;9.534;2024-03-02T12:56:42;97197.88;;;14.51;28.01
63321;BME280;49449;48.800;9.534;2024-03-02T12:59:17;97190.72;;;14.51;25.88
63321;BME280;49449;48.800;9.534;2024-03-02T13:01:51;97186.00;;;14.19;25.57
63321;BME280;49449;48.800;9.534;2024-03-02T13:04:22;97182.03;;;14.40;27.82
63321;BME280;49449;48.800;9.534;2024-03-02T13:06:51;97178.47;;;14.26;24.72
63321;BME280;49449;48.800;9.534;2024-03-02T13:09:20;97191.03;;;13.96;24.69
63321;BME280;49449;48.800;9.534;2024-03-02T13:11:49;97186.97;;;14.28;24.49
63321;BME280;49449;48.800;9.534;2024-03-02T13:14:17;97183.34;;;14.43;23.63
63321;BME280;49449;48.800;9.534;2024-03-02T13:16:45;97175.31;;;14.48;21.86